createdAt,value
2022-11-23T00:01:20.865Z,5.28
2022-11-23T00:03:49.528Z,7.28
2022-11-23T00:06:17.236Z,5.30
2022-11-23T00:08:44.319Z,3.38
2022-11-23T00:11:11.703Z,10.73
2022-11-23T00:13:40.630Z,9.20
2022-11-23T00:16:14.883Z,8.93
2022-11-23T00:18:41.736Z,9.88
2022-11-23T00:21:14.328Z,9.20
2022-11-23T00:23:41.352Z,17.77
2022-11-23T00:26:08.732Z,10.95
2022-11-23T00:28:38.884Z,15.63
2022-11-23T00:31:10.051Z,11.40
2022-11-23T00:33:37.312Z,11.82
2022-11-23T00:36:07.402Z,9.48
2022-11-23T00:38:34.465Z,10.10
2022-11-23T00:41:04.019Z,12.05
2022-11-23T00:43:31.084Z,12.38
2022-11-23T00:46:16.325Z,12.10
2022-11-23T00:48:48.586Z,9.98
2022-11-23T00:51:17.878Z,11.02
2022-11-23T00:53:44.838Z,11.23
2022-11-23T00:56:11.973Z,4.22
2022-11-23T00:58:38.884Z,9.40
2022-11-23T01:01:14.665Z,8.02
2022-11-23T01:03:44.576Z,22.20
2022-11-23T01:06:17.095Z,11.35
2022-11-23T01:08:51.548Z,10.75
2022-11-23T01:11:19.436Z,6.35
2022-11-23T01:13:46.589Z,7.15
2022-11-23T01:16:22.398Z,6.43
2022-11-23T01:19:01.384Z,4.05
2022-11-23T01:21:29.611Z,3.97
2022-11-23T01:23:56.585Z,5.68
2022-11-23T01:26:23.609Z,4.13
2022-11-23T01:28:51.131Z,3.65
2022-11-23T01:31:23.400Z,3.38
2022-11-23T01:33:58.628Z,3.55
2022-11-23T01:36:31.194Z,4.10
2022-11-23T01:38:59.111Z,2.85
2022-11-23T01:41:32.073Z,2.05
2022-11-23T01:43:59.539Z,3.55
2022-11-23T01:46:26.319Z,3.58
2022-11-23T01:51:37.682Z,3.17
2022-11-23T01:54:14.942Z,2.30
2022-11-23T01:56:46.212Z,3.53
2022-11-23T01:59:17.307Z,3.72
2022-11-23T02:01:44.424Z,4.85
2022-11-23T02:04:23.610Z,2.40
2022-11-23T02:06:50.772Z,2.97
2022-11-23T02:09:21.149Z,3.22
2022-11-23T02:11:47.866Z,4.50
2022-11-23T02:14:17.848Z,3.28
2022-11-23T02:16:48.840Z,4.80
2022-11-23T02:19:40.169Z,6.22
2022-11-23T02:22:14.405Z,4.70
2022-11-23T02:24:49.183Z,7.05
2022-11-23T02:27:16.870Z,8.52
2022-11-23T02:29:43.749Z,5.50
2022-11-23T02:32:10.457Z,5.97
2022-11-23T02:34:37.132Z,5.90
2022-11-23T02:37:04.888Z,6.40
2022-11-23T02:39:45.784Z,4.53
2022-11-23T02:42:12.738Z,5.20
2022-11-23T02:45:04.912Z,4.20
2022-11-23T02:47:31.643Z,4.40
2022-11-23T02:50:00.941Z,5.18
2022-11-23T02:52:27.647Z,3.88
2022-11-23T02:54:56.816Z,4.30
2022-11-23T02:57:23.660Z,6.57
2022-11-23T02:59:50.403Z,3.67
2022-11-23T03:02:17.329Z,3.35
2022-11-23T03:04:44.045Z,8.80
2022-11-23T03:07:10.857Z,5.93
2022-11-23T03:09:38.640Z,5.88
2022-11-23T03:12:06.232Z,8.25
2022-11-23T03:14:33.050Z,6.15
2022-11-23T03:17:01.075Z,3.58
2022-11-23T03:19:32.687Z,5.30
2022-11-23T03:21:59.726Z,6.00
2022-11-23T03:24:30.305Z,4.38
2022-11-23T03:26:57.208Z,7.05
2022-11-23T03:29:26.478Z,5.55
2022-11-23T03:31:54.958Z,4.32
2022-11-23T03:34:22.320Z,6.85
2022-11-23T03:36:50.474Z,4.70
2022-11-23T03:39:17.268Z,4.57
2022-11-23T03:42:15.981Z,8.35
2022-11-23T03:44:42.713Z,5.03
2022-11-23T03:47:10.107Z,8.15
2022-11-23T03:49:37.152Z,6.32
2022-11-23T03:52:04.557Z,7.75
2022-11-23T03:54:31.338Z,5.07
2022-11-23T03:56:58.139Z,3.83
2022-11-23T03:59:25.273Z,3.40
2022-11-23T04:01:52.893Z,3.60
2022-11-23T04:04:25.325Z,2.95
2022-11-23T04:07:04.924Z,5.05
2022-11-23T04:09:35.482Z,3.85
2022-11-23T04:12:05.284Z,6.00
2022-11-23T04:14:33.009Z,6.68
2022-11-23T04:17:02.132Z,5.85
2022-11-23T04:19:30.282Z,8.00
2022-11-23T04:21:57.870Z,6.35
2022-11-23T04:24:25.541Z,5.63
2022-11-23T04:26:54.951Z,7.53
2022-11-23T04:29:21.743Z,7.18
2022-11-23T04:31:52.793Z,10.63
2022-11-23T04:36:50.771Z,10.98
2022-11-23T04:39:20.352Z,9.75
2022-11-23T04:42:07.071Z,7.82
2022-11-23T04:44:34.159Z,7.50
2022-11-23T04:47:04.365Z,7.38
2022-11-23T04:49:34.188Z,6.68
2022-11-23T04:52:01.131Z,7.80
2022-11-23T04:54:34.159Z,8.98
2022-11-23T04:57:03.573Z,10.48
2022-11-23T04:59:30.615Z,9.38
2022-11-23T05:01:59.247Z,16.10
2022-11-23T05:04:46.397Z,7.88
2022-11-23T05:07:15.440Z,7.65
2022-11-23T05:09:45.431Z,9.38
2022-11-23T05:12:15.446Z,8.82
2022-11-23T05:14:43.227Z,8.07
2022-11-23T05:17:11.612Z,14.52
2022-11-23T05:19:40.502Z,11.82
2022-11-23T05:22:07.844Z,12.18
2022-11-23T05:24:36.633Z,10.48
2022-11-23T05:27:08.612Z,8.52
2022-11-23T05:29:35.695Z,12.18
2022-11-23T05:32:04.581Z,10.93
2022-11-23T05:36:58.348Z,6.22
2022-11-23T05:39:25.348Z,12.10
2022-11-23T05:41:53.148Z,6.10
2022-11-23T05:44:41.779Z,6.03
2022-11-23T05:47:14.782Z,5.22
2022-11-23T05:49:41.705Z,7.80
2022-11-23T05:52:08.618Z,11.15
2022-11-23T05:54:37.320Z,5.25
2022-11-23T05:57:15.801Z,10.00
2022-11-23T05:59:45.172Z,5.88
2022-11-23T06:02:17.494Z,5.85
2022-11-23T06:04:44.646Z,10.65
2022-11-23T06:07:16.057Z,8.05
2022-11-23T06:09:57.911Z,14.50
2022-11-23T06:12:25.881Z,8.10
2022-11-23T06:14:52.693Z,8.38
2022-11-23T06:17:22.565Z,8.75
2022-11-23T06:19:50.921Z,12.63
2022-11-23T06:22:17.746Z,9.85
2022-11-23T06:24:53.480Z,9.23
2022-11-23T06:27:40.421Z,12.20
2022-11-23T06:30:16.034Z,10.23
2022-11-23T06:32:43.313Z,6.95
2022-11-23T06:35:10.567Z,11.90
2022-11-23T06:37:40.320Z,6.38
2022-11-23T06:40:07.759Z,8.60
2022-11-23T06:42:39.335Z,9.60
2022-11-23T06:45:13.434Z,8.88
2022-11-23T06:47:40.347Z,9.32
2022-11-23T06:52:34.497Z,10.73
2022-11-23T06:55:01.331Z,7.57
2022-11-23T06:57:28.780Z,16.63
2022-11-23T06:59:56.464Z,7.45
2022-11-23T07:02:30.764Z,7.57
2022-11-23T07:04:58.575Z,8.02
2022-11-23T07:07:27.578Z,9.20
2022-11-23T07:10:07.410Z,7.60
2022-11-23T07:12:46.671Z,8.48
2022-11-23T07:15:15.970Z,8.10
2022-11-23T07:17:44.666Z,9.52
2022-11-23T07:20:13.449Z,10.40
2022-11-23T07:22:40.529Z,9.27
2022-11-23T07:25:08.253Z,15.05
2022-11-23T07:30:02.878Z,6.10
2022-11-23T07:34:57.401Z,4.73
2022-11-23T07:37:25.431Z,7.85
2022-11-23T07:39:57.752Z,5.70
2022-11-23T07:42:39.871Z,13.82
2022-11-23T07:45:12.488Z,5.47
2022-11-23T07:47:44.271Z,2.42
2022-11-23T07:52:39.417Z,3.33
2022-11-23T07:55:06.637Z,4.70
2022-11-23T07:59:59.867Z,6.88
2022-11-23T08:02:26.652Z,6.53
2022-11-23T08:04:53.434Z,7.05
2022-11-23T08:07:20.182Z,6.45
2022-11-23T08:09:47.001Z,15.05
2022-11-23T08:12:13.691Z,10.50
2022-11-23T08:14:40.457Z,9.60
2022-11-23T08:17:07.460Z,8.95
2022-11-23T08:19:36.843Z,8.93
2022-11-23T08:22:04.004Z,7.03
2022-11-23T08:24:30.999Z,5.72
2022-11-23T08:27:00.280Z,4.82
2022-11-23T08:29:27.315Z,5.93
2022-11-23T08:31:54.020Z,6.50
2022-11-23T08:34:20.754Z,4.18
2022-11-23T08:36:48.325Z,5.50
2022-11-23T08:39:15.274Z,3.47
2022-11-23T08:41:42.490Z,5.63
2022-11-23T08:49:05.617Z,5.63
2022-11-23T08:51:32.507Z,4.07
2022-11-23T08:53:59.309Z,4.18
2022-11-23T08:56:26.082Z,3.38
2022-11-23T08:58:52.797Z,3.95
2022-11-23T09:01:19.743Z,5.85
2022-11-23T09:03:46.576Z,5.45
2022-11-23T09:06:13.268Z,5.70
2022-11-23T09:08:40.044Z,8.05
2022-11-23T09:11:09.941Z,7.45
2022-11-23T09:13:37.447Z,4.97
2022-11-23T09:16:05.768Z,5.78
2022-11-23T09:18:33.433Z,5.53
2022-11-23T09:21:04.017Z,5.50
2022-11-23T09:23:31.748Z,5.47
2022-11-23T09:26:05.139Z,5.60
2022-11-23T09:28:33.902Z,39.08
2022-11-23T09:31:04.579Z,5.18
2022-11-23T09:33:31.425Z,5.07
2022-11-23T09:36:00.156Z,5.60
2022-11-23T09:38:54.552Z,4.85
2022-11-23T09:41:38.325Z,4.05
2022-11-23T09:44:28.251Z,4.10
2022-11-23T09:47:17.529Z,6.78
2022-11-23T09:50:03.429Z,5.03
2022-11-23T09:52:36.416Z,8.07
2022-11-23T09:55:29.353Z,8.52
2022-11-23T09:58:06.683Z,5.22
2022-11-23T10:00:59.451Z,3.58
2022-11-23T10:03:27.856Z,6.50
2022-11-23T10:06:07.799Z,8.48
2022-11-23T10:08:59.400Z,7.45
2022-11-23T10:11:54.372Z,3.10
2022-11-23T10:14:48.449Z,3.00
2022-11-23T10:17:27.092Z,2.17
2022-11-23T10:20:02.961Z,5.93
2022-11-23T10:22:49.029Z,3.90
2022-11-23T10:25:19.222Z,3.13
2022-11-23T10:27:52.167Z,1.52
2022-11-23T10:30:20.654Z,2.38
2022-11-23T10:32:55.514Z,7.15
2022-11-23T10:35:32.984Z,7.85
2022-11-23T10:38:18.657Z,5.80
2022-11-23T10:41:08.483Z,3.83
2022-11-23T10:43:55.392Z,10.38
2022-11-23T10:46:26.789Z,4.00
2022-11-23T10:48:54.325Z,10.45
2022-11-23T10:51:30.700Z,4.32
2022-11-23T10:54:05.170Z,6.60
2022-11-23T10:56:34.122Z,3.85
2022-11-23T10:59:00.922Z,4.55
2022-11-23T11:01:29.757Z,4.38
2022-11-23T11:04:03.405Z,3.78
2022-11-23T11:06:36.137Z,9.43
2022-11-23T11:09:17.756Z,9.18
2022-11-23T11:11:52.260Z,5.80
2022-11-23T11:14:23.532Z,6.07
2022-11-23T11:16:55.732Z,8.50
2022-11-23T11:19:32.445Z,4.25
2022-11-23T11:22:01.235Z,5.00
2022-11-23T11:24:36.227Z,4.32
2022-11-23T11:27:13.378Z,4.72
2022-11-23T11:29:48.267Z,4.97
2022-11-23T11:32:37.066Z,5.50
2022-11-23T11:35:20.462Z,3.63
2022-11-23T11:37:51.408Z,3.45
2022-11-23T11:40:33.060Z,3.72
2022-11-23T11:43:37.582Z,4.85
2022-11-23T11:46:28.965Z,5.05
2022-11-23T11:49:07.650Z,4.78
2022-11-23T11:51:40.402Z,4.47
2022-11-23T11:54:28.338Z,4.18
2022-11-23T11:57:06.376Z,6.05
2022-11-23T11:59:45.647Z,8.27
2022-11-23T12:02:29.929Z,4.07
2022-11-23T12:05:04.206Z,5.00
2022-11-23T12:07:35.842Z,6.22
2022-11-23T12:10:12.839Z,5.72
2022-11-23T12:12:39.882Z,7.03
2022-11-23T12:15:33.268Z,5.13
2022-11-23T12:18:28.941Z,5.40
2022-11-23T12:20:58.733Z,4.50
2022-11-23T12:23:37.469Z,5.50
2022-11-23T12:26:22.749Z,6.93
2022-11-23T12:29:40.041Z,4.90
2022-11-23T12:32:24.725Z,5.68
2022-11-23T12:34:59.872Z,4.40
2022-11-23T12:37:42.832Z,3.92
2022-11-23T12:40:30.929Z,4.53
2022-11-23T12:43:33.543Z,4.07
2022-11-23T12:46:02.921Z,3.80
2022-11-23T12:49:12.340Z,5.00
2022-11-23T12:52:07.593Z,4.43
2022-11-23T12:55:05.343Z,4.80
2022-11-23T12:57:49.121Z,3.47
2022-11-23T13:00:21.490Z,5.38
2022-11-23T13:02:57.199Z,5.55
2022-11-23T13:05:45.623Z,7.72
2022-11-23T13:11:09.368Z,4.07
2022-11-23T13:13:54.089Z,4.07
2022-11-23T13:17:01.705Z,3.65
2022-11-23T13:19:39.279Z,5.97
2022-11-23T13:22:16.429Z,4.43
2022-11-23T13:25:12.601Z,6.63
2022-11-23T13:27:54.546Z,2.90
2022-11-23T13:30:35.593Z,4.97
2022-11-23T13:33:23.645Z,3.80
2022-11-23T13:35:57.498Z,6.03
2022-11-23T13:38:26.551Z,5.95
2022-11-23T13:40:54.001Z,4.13
2022-11-23T13:43:33.653Z,9.15
2022-11-23T13:46:24.928Z,6.72
2022-11-23T13:48:57.795Z,6.18
2022-11-23T13:51:33.556Z,4.63
2022-11-23T13:54:21.313Z,5.13
2022-11-23T13:57:00.900Z,6.80
2022-11-23T13:59:31.724Z,6.15
2022-11-23T14:02:03.210Z,5.72
2022-11-23T14:04:32.293Z,7.32
2022-11-23T14:07:06.773Z,7.05
2022-11-23T14:09:39.814Z,6.93
2022-11-23T14:12:12.537Z,5.30
2022-11-23T14:14:45.237Z,6.05
2022-11-23T14:17:40.252Z,5.32
2022-11-23T14:20:35.561Z,4.82
2022-11-23T14:23:32.818Z,5.13
2022-11-23T14:26:17.820Z,4.78
2022-11-23T14:28:56.848Z,5.75
2022-11-23T14:31:43.561Z,6.40
2022-11-23T14:34:38.185Z,5.45
2022-11-23T14:37:32.136Z,5.50
2022-11-23T14:40:01.890Z,5.28
2022-11-23T14:42:30.381Z,5.65
2022-11-23T14:45:04.868Z,4.03
2022-11-23T14:47:32.775Z,4.32
2022-11-23T14:49:59.530Z,10.40
2022-11-23T14:52:29.619Z,4.30
2022-11-23T14:55:01.417Z,4.68
2022-11-23T14:57:41.433Z,4.90
2022-11-23T15:00:26.287Z,5.05
2022-11-23T15:02:55.204Z,5.53
2022-11-23T15:05:26.888Z,5.43
2022-11-23T15:08:00.240Z,6.28
2022-11-23T15:10:48.720Z,9.90
2022-11-23T15:15:49.832Z,5.68
2022-11-23T15:18:29.441Z,5.78
2022-11-23T15:20:59.453Z,7.97
2022-11-23T15:23:34.873Z,5.88
2022-11-23T15:26:05.834Z,5.82
2022-11-23T15:28:38.497Z,5.32
2022-11-23T15:31:18.857Z,6.00
2022-11-23T15:33:50.457Z,6.20
2022-11-23T15:36:24.959Z,5.90
2022-11-23T15:38:53.425Z,6.00
2022-11-23T15:41:20.547Z,9.15
2022-11-23T15:44:00.007Z,6.15
2022-11-23T15:46:36.832Z,6.80
2022-11-23T15:49:06.210Z,10.20
2022-11-23T15:51:42.273Z,10.95
2022-11-23T15:54:25.582Z,14.77
2022-11-23T15:56:55.376Z,15.10
2022-11-23T15:59:45.563Z,12.93
2022-11-23T16:02:17.944Z,15.57
2022-11-23T16:04:45.807Z,57.85
2022-11-23T16:07:22.908Z,13.75
2022-11-23T16:09:53.263Z,14.48
2022-11-23T16:12:27.669Z,13.77
2022-11-23T16:14:59.575Z,14.95
2022-11-23T16:17:28.653Z,16.63
2022-11-23T16:19:58.060Z,12.05
2022-11-23T16:22:27.972Z,17.60
2022-11-23T16:25:06.781Z,13.60
2022-11-23T16:27:34.060Z,15.02
2022-11-23T16:32:31.950Z,16.15
2022-11-23T16:35:15.746Z,11.80
2022-11-23T16:37:42.687Z,82.97
2022-11-23T16:40:10.181Z,193.30
2022-11-23T16:42:37.280Z,31.52
2022-11-23T16:45:06.529Z,23.98
2022-11-23T16:47:34.425Z,19.95
2022-11-23T16:50:02.010Z,24.00
2022-11-23T16:52:29.935Z,21.65
2022-11-23T16:54:59.161Z,35.42
2022-11-23T16:57:31.791Z,26.30
2022-11-23T17:00:01.823Z,45.08
2022-11-23T17:02:29.537Z,15.13
2022-11-23T17:04:56.496Z,12.35
2022-11-23T17:07:25.192Z,12.77
2022-11-23T17:09:52.457Z,14.77
2022-11-23T17:14:50.395Z,11.93
2022-11-23T17:17:22.408Z,15.68
2022-11-23T17:19:50.197Z,21.60
2022-11-23T17:22:18.673Z,14.07
2022-11-23T17:24:46.879Z,11.20
2022-11-23T17:27:16.972Z,22.95
2022-11-23T17:29:45.072Z,18.90
2022-11-23T17:32:14.024Z,14.30
2022-11-23T17:34:41.341Z,11.38
2022-11-23T17:39:41.666Z,12.27
2022-11-23T17:42:11.558Z,10.82
2022-11-23T17:44:39.512Z,12.98
2022-11-23T17:47:14.114Z,12.85
2022-11-23T17:49:40.855Z,13.70
2022-11-23T17:52:11.437Z,11.43
2022-11-23T17:54:38.125Z,12.60
2022-11-23T17:57:04.830Z,12.00
2022-11-23T17:59:31.953Z,13.07
2022-11-23T18:01:59.094Z,13.52
2022-11-23T18:04:25.832Z,15.32
2022-11-23T18:06:52.552Z,13.02
2022-11-23T18:09:19.279Z,14.20
2022-11-23T18:11:45.977Z,13.85
2022-11-23T18:14:12.649Z,15.73
2022-11-23T18:16:39.537Z,11.40
2022-11-23T18:19:06.205Z,11.70
2022-11-23T18:21:32.938Z,12.57
2022-11-23T18:24:04.262Z,12.73
2022-11-23T18:26:31.834Z,12.75
2022-11-23T18:28:58.593Z,16.10
2022-11-23T18:31:25.383Z,15.80
2022-11-23T18:33:52.129Z,20.77
2022-11-23T18:36:19.082Z,14.13
2022-11-23T18:38:46.661Z,15.05
2022-11-23T18:41:16.286Z,16.08
2022-11-23T18:43:44.029Z,14.00
2022-11-23T18:46:12.308Z,25.75
2022-11-23T18:48:39.155Z,14.60
2022-11-23T18:51:06.265Z,20.55
2022-11-23T18:53:34.149Z,15.20
2022-11-23T18:56:05.804Z,15.77
2022-11-23T18:58:34.808Z,12.90
2022-11-23T19:01:15.916Z,47.03
2022-11-23T19:03:46.126Z,29.40
2022-11-23T19:06:18.421Z,23.25
2022-11-23T19:08:51.592Z,17.13
2022-11-23T19:11:27.423Z,65.85
2022-11-23T19:13:56.903Z,16.80
2022-11-23T19:16:31.451Z,14.55
2022-11-23T19:19:04.236Z,18.55
2022-11-23T19:21:32.788Z,15.93
2022-11-23T19:24:00.691Z,19.35
2022-11-23T19:26:28.808Z,17.45
2022-11-23T19:28:56.158Z,20.83
2022-11-23T19:33:52.565Z,18.45
2022-11-23T19:36:21.728Z,25.60
2022-11-23T19:38:49.738Z,21.42
2022-11-23T19:41:17.096Z,17.58
2022-11-23T19:46:14.791Z,21.23
2022-11-23T19:48:42.168Z,98.22
2022-11-23T19:51:14.387Z,34.00
2022-11-23T19:53:42.444Z,15.95
2022-11-23T19:56:20.079Z,21.33
2022-11-23T19:58:56.204Z,19.05
2022-11-23T20:01:25.392Z,16.80
2022-11-23T20:04:07.890Z,17.30
2022-11-23T20:06:37.329Z,19.30
2022-11-23T20:09:09.132Z,30.65
2022-11-23T20:11:38.231Z,24.13
2022-11-23T20:14:05.399Z,25.15
2022-11-23T20:16:35.656Z,36.20
2022-11-23T20:19:06.362Z,147.48
2022-11-23T20:21:35.007Z,21.05
2022-11-23T20:24:05.716Z,22.88
2022-11-23T20:26:36.619Z,300.88
2022-11-23T20:29:05.785Z,68.43
2022-11-23T20:31:33.277Z,51.55
2022-11-23T20:34:02.583Z,31.27
2022-11-23T20:36:37.650Z,46.63
2022-11-23T20:39:08.046Z,127.85
2022-11-23T20:41:36.438Z,120.90
2022-11-23T20:44:04.514Z,115.05
2022-11-23T20:49:20.812Z,106.50
2022-11-23T20:51:47.585Z,129.35
2022-11-23T20:54:15.560Z,73.07
2022-11-23T20:56:42.943Z,36.67
2022-11-23T20:59:12.062Z,72.57
2022-11-23T21:01:40.712Z,112.30
2022-11-23T21:04:09.801Z,137.38
2022-11-23T21:06:39.442Z,145.40
2022-11-23T21:09:07.899Z,24.90
2022-11-23T21:12:00.694Z,19.13
2022-11-23T21:14:28.257Z,17.02
2022-11-23T21:16:59.472Z,14.77
2022-11-23T21:19:28.675Z,15.52
2022-11-23T21:21:56.905Z,23.48
2022-11-23T21:24:23.880Z,14.13
2022-11-23T21:26:50.840Z,17.02
2022-11-23T21:29:18.440Z,20.05
2022-11-23T21:31:46.884Z,15.38
2022-11-23T21:34:22.156Z,13.32
2022-11-23T21:36:49.701Z,15.60
2022-11-23T21:39:17.220Z,18.52
2022-11-23T21:41:44.680Z,15.95
2022-11-23T21:44:12.989Z,18.25
2022-11-23T21:46:41.097Z,19.20
2022-11-23T21:49:10.790Z,19.27
2022-11-23T21:51:38.493Z,20.80
2022-11-23T21:54:07.935Z,12.80
2022-11-23T21:56:34.683Z,28.48
2022-11-23T21:59:02.497Z,18.35
2022-11-23T22:01:34.785Z,16.33
2022-11-23T22:04:15.602Z,20.30
2022-11-23T22:06:44.552Z,17.13
2022-11-23T22:09:12.177Z,22.48
2022-11-23T22:11:41.303Z,15.95
2022-11-23T22:14:16.618Z,17.38
2022-11-23T22:16:46.142Z,18.02
2022-11-23T22:19:14.869Z,18.35
2022-11-23T22:21:43.737Z,16.42
2022-11-23T22:24:15.310Z,20.30
2022-11-23T22:26:43.060Z,17.23
2022-11-23T22:29:17.872Z,20.08
2022-11-23T22:31:44.913Z,26.30
2022-11-23T22:36:41.303Z,17.52
2022-11-23T22:39:08.588Z,24.38
2022-11-23T22:44:06.321Z,17.88
2022-11-23T22:46:33.539Z,22.40
2022-11-23T22:53:59.967Z,18.23
2022-11-23T22:56:28.788Z,18.67
2022-11-23T22:58:56.960Z,29.70
2022-11-23T23:01:26.639Z,17.67
2022-11-23T23:03:58.496Z,27.55
2022-11-23T23:06:28.458Z,25.65
2022-11-23T23:08:57.576Z,30.65
2022-11-23T23:11:26.285Z,17.45
2022-11-23T23:13:53.723Z,19.83
2022-11-23T23:16:20.833Z,33.08
2022-11-23T23:18:47.725Z,23.83
2022-11-23T23:21:20.967Z,85.53
2022-11-23T23:23:52.903Z,27.42
2022-11-23T23:26:22.983Z,24.17
2022-11-23T23:28:53.148Z,113.05
2022-11-23T23:31:19.934Z,201.80
2022-11-23T23:33:46.943Z,266.10
2022-11-23T23:36:19.839Z,214.10
2022-11-23T23:38:47.494Z,209.73
2022-11-23T23:41:15.758Z,153.85
2022-11-23T23:46:12.224Z,290.88
2022-11-23T23:48:39.992Z,332.60
2022-11-23T23:51:11.241Z,353.98
2022-11-23T23:53:38.896Z,130.18
2022-11-23T23:56:08.605Z,348.75
2022-11-23T23:58:35.514Z,201.57
